sensor_id;sensor_type;location;lat;lon;timestamp;P1;durP1;ratioP1;P2;durP2;ratioP2
7961;SDS011;4026;43.652;24.906;2024-02-26T00:01:50;11.73;;;5.43;;
7961;SDS011;4026;43.652;24.906;2024-02-26T00:04:17;11.93;;;5.93;;
7961;SDS011;4026;43.652;24.906;2024-02-26T00:06:44;11.90;;;5.73;;
7961;SDS011;4026;43.652;24.906;2024-02-26T00:09:11;10.97;;;4.57;;
7961;SDS011;4026;43.652;24.906;2024-02-26T00:11:38;13.73;;;6.63;;
7961;SDS011;4026;43.652;24.906;2024-02-26T00:14:05;12.10;;;5.10;;
7961;SDS011;4026;43.652;24.906;2024-02-26T00:16:33;10.43;;;5.40;;
7961;SDS011;4026;43.652;24.906;2024-02-26T00:19:00;13.63;;;5.73;;
7961;SDS011;4026;43.652;24.906;2024-02-26T00:21:27;8.47;;;4.37;;
7961;SDS011;4026;43.652;24.906;2024-02-26T00:23:54;12.07;;;5.87;;
7961;SDS011;4026;43.652;24.906;2024-02-26T00:26:21;12.93;;;5.40;;
7961;SDS011;4026;43.652;24.906;2024-02-26T00:28:48;8.67;;;5.33;;
7961;SDS011;4026;43.652;24.906;2024-02-26T00:31:14;9.53;;;5.00;;
7961;SDS011;4026;43.652;24.906;2024-02-26T00:33:43;8.73;;;5.40;;
7961;SDS011;4026;43.652;24.906;2024-02-26T00:36:09;11.37;;;5.53;;
7961;SDS011;4026;43.652;24.906;2024-02-26T00:38:36;12.83;;;6.43;;
7961;SDS011;4026;43.652;24.906;2024-02-26T00:41:04;10.47;;;5.20;;
7961;SDS011;4026;43.652;24.906;2024-02-26T00:43:31;10.57;;;5.37;;
7961;SDS011;4026;43.652;24.906;2024-02-26T00:45:58;10.77;;;4.77;;
7961;SDS011;4026;43.652;24.906;2024-02-26T00:48:25;13.10;;;5.20;;
7961;SDS011;4026;43.652;24.906;2024-02-26T00:50:53;8.87;;;4.93;;
7961;SDS011;4026;43.652;24.906;2024-02-26T00:53:20;14.83;;;5.67;;
7961;SDS011;4026;43.652;24.906;2024-02-26T00:55:47;10.07;;;5.00;;
7961;SDS011;4026;43.652;24.906;2024-02-26T00:58:14;11.67;;;5.43;;
7961;SDS011;4026;43.652;24.906;2024-02-26T01:00:41;9.83;;;4.87;;
7961;SDS011;4026;43.652;24.906;2024-02-26T01:03:07;9.13;;;4.90;;
7961;SDS011;4026;43.652;24.906;2024-02-26T01:05:35;12.50;;;5.50;;
7961;SDS011;4026;43.652;24.906;2024-02-26T01:08:04;11.60;;;5.27;;
7961;SDS011;4026;43.652;24.906;2024-02-26T01:10:31;9.53;;;5.07;;
7961;SDS011;4026;43.652;24.906;2024-02-26T01:12:59;10.50;;;5.70;;
7961;SDS011;4026;43.652;24.906;2024-02-26T01:15:26;10.37;;;5.27;;
7961;SDS011;4026;43.652;24.906;2024-02-26T01:17:52;11.07;;;5.80;;
7961;SDS011;4026;43.652;24.906;2024-02-26T01:20:20;10.23;;;5.20;;
7961;SDS011;4026;43.652;24.906;2024-02-26T01:22:46;13.27;;;6.10;;
7961;SDS011;4026;43.652;24.906;2024-02-26T01:25:15;10.80;;;4.90;;
7961;SDS011;4026;43.652;24.906;2024-02-26T01:27:42;10.17;;;5.33;;
7961;SDS011;4026;43.652;24.906;2024-02-26T01:30:09;9.33;;;4.67;;
7961;SDS011;4026;43.652;24.906;2024-02-26T01:32:37;7.27;;;4.50;;
7961;SDS011;4026;43.652;24.906;2024-02-26T01:35:04;9.67;;;5.17;;
7961;SDS011;4026;43.652;24.906;2024-02-26T01:37:32;11.23;;;5.07;;
7961;SDS011;4026;43.652;24.906;2024-02-26T01:39:59;9.23;;;4.13;;
7961;SDS011;4026;43.652;24.906;2024-02-26T01:42:30;10.77;;;5.10;;
7961;SDS011;4026;43.652;24.906;2024-02-26T01:44:57;15.87;;;5.37;;
7961;SDS011;4026;43.652;24.906;2024-02-26T01:47:24;10.40;;;5.20;;
7961;SDS011;4026;43.652;24.906;2024-02-26T01:49:52;10.70;;;6.23;;
7961;SDS011;4026;43.652;24.906;2024-02-26T01:52:19;17.63;;;7.03;;
7961;SDS011;4026;43.652;24.906;2024-02-26T01:54:47;12.10;;;6.23;;
7961;SDS011;4026;43.652;24.906;2024-02-26T01:57:15;14.50;;;6.23;;
7961;SDS011;4026;43.652;24.906;2024-02-26T01:59:44;14.67;;;6.10;;
7961;SDS011;4026;43.652;24.906;2024-02-26T02:02:11;11.00;;;6.17;;
7961;SDS011;4026;43.652;24.906;2024-02-26T02:04:39;18.53;;;7.03;;
7961;SDS011;4026;43.652;24.906;2024-02-26T02:07:06;16.20;;;7.03;;
7961;SDS011;4026;43.652;24.906;2024-02-26T02:09:33;12.53;;;6.03;;
7961;SDS011;4026;43.652;24.906;2024-02-26T02:12:00;12.93;;;6.47;;
7961;SDS011;4026;43.652;24.906;2024-02-26T02:14:27;13.67;;;6.57;;
7961;SDS011;4026;43.652;24.906;2024-02-26T02:16:55;12.07;;;5.93;;
7961;SDS011;4026;43.652;24.906;2024-02-26T02:19:22;13.70;;;7.23;;
7961;SDS011;4026;43.652;24.906;2024-02-26T02:21:50;13.37;;;6.17;;
7961;SDS011;4026;43.652;24.906;2024-02-26T02:24:17;13.67;;;6.47;;
7961;SDS011;4026;43.652;24.906;2024-02-26T02:26:44;12.40;;;5.50;;
7961;SDS011;4026;43.652;24.906;2024-02-26T02:29:11;10.73;;;5.67;;
7961;SDS011;4026;43.652;24.906;2024-02-26T02:31:39;11.27;;;5.00;;
7961;SDS011;4026;43.652;24.906;2024-02-26T02:34:06;13.17;;;5.43;;
7961;SDS011;4026;43.652;24.906;2024-02-26T02:36:33;11.50;;;5.23;;
7961;SDS011;4026;43.652;24.906;2024-02-26T02:39:01;9.53;;;5.30;;
7961;SDS011;4026;43.652;24.906;2024-02-26T02:41:28;11.97;;;5.87;;
7961;SDS011;4026;43.652;24.906;2024-02-26T02:43:55;12.00;;;5.60;;
7961;SDS011;4026;43.652;24.906;2024-02-26T02:46:22;7.93;;;4.70;;
7961;SDS011;4026;43.652;24.906;2024-02-26T02:48:49;8.63;;;5.43;;
7961;SDS011;4026;43.652;24.906;2024-02-26T02:51:16;14.80;;;6.13;;
7961;SDS011;4026;43.652;24.906;2024-02-26T02:53:43;14.97;;;5.90;;
7961;SDS011;4026;43.652;24.906;2024-02-26T02:56:11;13.07;;;5.80;;
7961;SDS011;4026;43.652;24.906;2024-02-26T02:58:37;12.10;;;5.07;;
7961;SDS011;4026;43.652;24.906;2024-02-26T03:01:04;9.43;;;5.10;;
7961;SDS011;4026;43.652;24.906;2024-02-26T03:03:31;11.03;;;5.13;;
7961;SDS011;4026;43.652;24.906;2024-02-26T03:05:58;11.10;;;5.33;;
7961;SDS011;4026;43.652;24.906;2024-02-26T03:08:25;9.43;;;4.97;;
7961;SDS011;4026;43.652;24.906;2024-02-26T03:10:52;12.73;;;5.47;;
7961;SDS011;4026;43.652;24.906;2024-02-26T03:13:20;9.43;;;4.90;;
7961;SDS011;4026;43.652;24.906;2024-02-26T03:15:47;11.17;;;5.40;;
7961;SDS011;4026;43.652;24.906;2024-02-26T03:18:14;8.20;;;4.00;;
7961;SDS011;4026;43.652;24.906;2024-02-26T03:20:41;11.13;;;5.50;;
7961;SDS011;4026;43.652;24.906;2024-02-26T03:23:08;11.30;;;4.83;;
7961;SDS011;4026;43.652;24.906;2024-02-26T03:25:38;9.93;;;4.80;;
7961;SDS011;4026;43.652;24.906;2024-02-26T03:28:05;9.10;;;4.67;;
7961;SDS011;4026;43.652;24.906;2024-02-26T03:30:33;11.83;;;5.80;;
7961;SDS011;4026;43.652;24.906;2024-02-26T03:33:00;10.87;;;5.63;;
7961;SDS011;4026;43.652;24.906;2024-02-26T03:35:27;9.50;;;4.93;;
7961;SDS011;4026;43.652;24.906;2024-02-26T03:37:54;8.77;;;4.97;;
7961;SDS011;4026;43.652;24.906;2024-02-26T03:40:21;10.53;;;4.63;;
7961;SDS011;4026;43.652;24.906;2024-02-26T03:42:48;10.70;;;5.43;;
7961;SDS011;4026;43.652;24.906;2024-02-26T03:45:14;6.77;;;4.33;;
7961;SDS011;4026;43.652;24.906;2024-02-26T03:47:43;10.93;;;4.50;;
7961;SDS011;4026;43.652;24.906;2024-02-26T03:50:10;8.57;;;4.57;;
7961;SDS011;4026;43.652;24.906;2024-02-26T03:52:36;8.13;;;3.77;;
7961;SDS011;4026;43.652;24.906;2024-02-26T03:55:03;7.60;;;4.00;;
7961;SDS011;4026;43.652;24.906;2024-02-26T03:57:31;7.80;;;4.17;;
7961;SDS011;4026;43.652;24.906;2024-02-26T03:59:57;7.20;;;4.53;;
7961;SDS011;4026;43.652;24.906;2024-02-26T04:02:24;8.97;;;4.90;;
7961;SDS011;4026;43.652;24.906;2024-02-26T04:04:53;9.40;;;4.67;;
7961;SDS011;4026;43.652;24.906;2024-02-26T04:07:20;7.40;;;4.03;;
7961;SDS011;4026;43.652;24.906;2024-02-26T04:09:47;9.80;;;4.63;;
7961;SDS011;4026;43.652;24.906;2024-02-26T04:12:13;5.67;;;4.13;;
7961;SDS011;4026;43.652;24.906;2024-02-26T04:14:40;6.00;;;3.47;;
7961;SDS011;4026;43.652;24.906;2024-02-26T04:17:07;6.87;;;4.30;;
7961;SDS011;4026;43.652;24.906;2024-02-26T04:19:34;9.47;;;4.67;;
7961;SDS011;4026;43.652;24.906;2024-02-26T04:22:02;8.50;;;4.60;;
7961;SDS011;4026;43.652;24.906;2024-02-26T04:24:29;7.77;;;4.33;;
7961;SDS011;4026;43.652;24.906;2024-02-26T04:26:56;8.80;;;4.47;;
7961;SDS011;4026;43.652;24.906;2024-02-26T04:29:23;7.47;;;3.73;;
7961;SDS011;4026;43.652;24.906;2024-02-26T04:31:49;7.80;;;4.70;;
7961;SDS011;4026;43.652;24.906;2024-02-26T04:34:16;7.57;;;3.93;;
7961;SDS011;4026;43.652;24.906;2024-02-26T04:36:43;9.83;;;5.10;;
7961;SDS011;4026;43.652;24.906;2024-02-26T04:39:11;14.17;;;4.57;;
7961;SDS011;4026;43.652;24.906;2024-02-26T04:41:38;10.20;;;5.30;;
7961;SDS011;4026;43.652;24.906;2024-02-26T04:44:05;16.93;;;4.43;;
7961;SDS011;4026;43.652;24.906;2024-02-26T04:46:32;9.27;;;4.90;;
7961;SDS011;4026;43.652;24.906;2024-02-26T04:48:59;8.37;;;5.17;;
7961;SDS011;4026;43.652;24.906;2024-02-26T04:51:26;9.07;;;4.03;;
7961;SDS011;4026;43.652;24.906;2024-02-26T04:53:53;6.73;;;3.43;;
7961;SDS011;4026;43.652;24.906;2024-02-26T04:56:22;9.07;;;4.00;;
7961;SDS011;4026;43.652;24.906;2024-02-26T04:58:48;10.17;;;3.93;;
7961;SDS011;4026;43.652;24.906;2024-02-26T05:01:15;5.83;;;3.37;;
7961;SDS011;4026;43.652;24.906;2024-02-26T05:03:42;7.93;;;4.23;;
7961;SDS011;4026;43.652;24.906;2024-02-26T05:06:09;9.30;;;4.00;;
7961;SDS011;4026;43.652;24.906;2024-02-26T05:08:36;7.07;;;4.23;;
7961;SDS011;4026;43.652;24.906;2024-02-26T05:11:03;6.33;;;3.30;;
7961;SDS011;4026;43.652;24.906;2024-02-26T05:13:32;7.90;;;3.57;;
7961;SDS011;4026;43.652;24.906;2024-02-26T05:15:59;6.30;;;3.93;;
7961;SDS011;4026;43.652;24.906;2024-02-26T05:18:26;6.27;;;3.47;;
7961;SDS011;4026;43.652;24.906;2024-02-26T05:20:53;6.80;;;3.57;;
7961;SDS011;4026;43.652;24.906;2024-02-26T05:23:20;7.90;;;3.50;;
7961;SDS011;4026;43.652;24.906;2024-02-26T05:25:48;9.50;;;4.97;;
7961;SDS011;4026;43.652;24.906;2024-02-26T05:28:15;15.17;;;6.07;;
7961;SDS011;4026;43.652;24.906;2024-02-26T05:30:46;13.37;;;7.03;;
7961;SDS011;4026;43.652;24.906;2024-02-26T05:33:13;11.90;;;6.37;;
7961;SDS011;4026;43.652;24.906;2024-02-26T05:35:41;12.77;;;7.23;;
7961;SDS011;4026;43.652;24.906;2024-02-26T05:38:07;13.90;;;7.37;;
7961;SDS011;4026;43.652;24.906;2024-02-26T05:40:34;13.13;;;6.80;;
7961;SDS011;4026;43.652;24.906;2024-02-26T05:43:01;14.47;;;6.63;;
7961;SDS011;4026;43.652;24.906;2024-02-26T05:45:28;12.70;;;7.03;;
7961;SDS011;4026;43.652;24.906;2024-02-26T05:47:56;14.93;;;6.87;;
7961;SDS011;4026;43.652;24.906;2024-02-26T05:50:23;15.57;;;7.30;;
7961;SDS011;4026;43.652;24.906;2024-02-26T05:52:50;15.87;;;6.53;;
7961;SDS011;4026;43.652;24.906;2024-02-26T05:55:17;13.60;;;6.77;;
7961;SDS011;4026;43.652;24.906;2024-02-26T05:57:44;14.87;;;7.10;;
7961;SDS011;4026;43.652;24.906;2024-02-26T06:00:11;11.40;;;6.13;;
7961;SDS011;4026;43.652;24.906;2024-02-26T06:02:39;12.80;;;6.53;;
7961;SDS011;4026;43.652;24.906;2024-02-26T06:05:07;11.53;;;5.00;;
7961;SDS011;4026;43.652;24.906;2024-02-26T06:07:34;14.23;;;6.50;;
7961;SDS011;4026;43.652;24.906;2024-02-26T06:10:01;17.20;;;6.00;;
7961;SDS011;4026;43.652;24.906;2024-02-26T06:12:29;13.73;;;6.37;;
7961;SDS011;4026;43.652;24.906;2024-02-26T06:14:57;13.63;;;5.50;;
7961;SDS011;4026;43.652;24.906;2024-02-26T06:17:26;16.63;;;5.30;;
7961;SDS011;4026;43.652;24.906;2024-02-26T06:19:52;12.93;;;6.33;;
7961;SDS011;4026;43.652;24.906;2024-02-26T06:22:21;15.07;;;6.57;;
7961;SDS011;4026;43.652;24.906;2024-02-26T06:24:47;11.17;;;6.60;;
7961;SDS011;4026;43.652;24.906;2024-02-26T06:27:14;14.97;;;6.93;;
7961;SDS011;4026;43.652;24.906;2024-02-26T06:29:41;14.00;;;7.50;;
7961;SDS011;4026;43.652;24.906;2024-02-26T06:32:08;12.57;;;6.27;;
7961;SDS011;4026;43.652;24.906;2024-02-26T06:34:34;14.57;;;7.60;;
7961;SDS011;4026;43.652;24.906;2024-02-26T06:37:03;13.07;;;6.77;;
7961;SDS011;4026;43.652;24.906;2024-02-26T06:39:31;12.13;;;6.70;;
7961;SDS011;4026;43.652;24.906;2024-02-26T06:41:58;11.97;;;6.63;;
7961;SDS011;4026;43.652;24.906;2024-02-26T06:44:26;11.67;;;5.57;;
7961;SDS011;4026;43.652;24.906;2024-02-26T06:46:57;17.47;;;7.43;;
7961;SDS011;4026;43.652;24.906;2024-02-26T06:49:24;14.20;;;7.17;;
7961;SDS011;4026;43.652;24.906;2024-02-26T06:51:51;13.50;;;7.70;;
7961;SDS011;4026;43.652;24.906;2024-02-26T06:54:18;11.60;;;6.60;;
7961;SDS011;4026;43.652;24.906;2024-02-26T06:56:46;17.50;;;7.47;;
7961;SDS011;4026;43.652;24.906;2024-02-26T06:59:13;11.97;;;7.03;;
7961;SDS011;4026;43.652;24.906;2024-02-26T07:01:40;11.87;;;6.30;;
7961;SDS011;4026;43.652;24.906;2024-02-26T07:04:07;12.17;;;6.27;;
7961;SDS011;4026;43.652;24.906;2024-02-26T07:06:36;13.47;;;6.80;;
7961;SDS011;4026;43.652;24.906;2024-02-26T07:09:02;17.37;;;7.07;;
7961;SDS011;4026;43.652;24.906;2024-02-26T07:11:29;13.73;;;6.90;;
7961;SDS011;4026;43.652;24.906;2024-02-26T07:13:57;10.17;;;5.70;;
7961;SDS011;4026;43.652;24.906;2024-02-26T07:16:26;13.63;;;6.43;;
7961;SDS011;4026;43.652;24.906;2024-02-26T07:18:53;14.77;;;6.80;;
7961;SDS011;4026;43.652;24.906;2024-02-26T07:21:20;10.23;;;5.63;;
7961;SDS011;4026;43.652;24.906;2024-02-26T07:23:46;16.23;;;5.90;;
7961;SDS011;4026;43.652;24.906;2024-02-26T07:26:13;14.13;;;6.30;;
7961;SDS011;4026;43.652;24.906;2024-02-26T07:28:40;14.27;;;6.93;;
7961;SDS011;4026;43.652;24.906;2024-02-26T07:31:08;10.67;;;5.90;;
7961;SDS011;4026;43.652;24.906;2024-02-26T07:33:35;11.33;;;5.63;;
7961;SDS011;4026;43.652;24.906;2024-02-26T07:36:02;14.60;;;6.30;;
7961;SDS011;4026;43.652;24.906;2024-02-26T07:38:29;11.70;;;6.00;;
7961;SDS011;4026;43.652;24.906;2024-02-26T07:40:56;11.50;;;6.57;;
7961;SDS011;4026;43.652;24.906;2024-02-26T07:43:23;13.77;;;6.37;;
7961;SDS011;4026;43.652;24.906;2024-02-26T07:45:49;13.53;;;6.77;;
7961;SDS011;4026;43.652;24.906;2024-02-26T07:48:18;10.43;;;5.83;;
7961;SDS011;4026;43.652;24.906;2024-02-26T07:50:44;16.57;;;5.53;;
7961;SDS011;4026;43.652;24.906;2024-02-26T07:53:11;11.97;;;6.13;;
7961;SDS011;4026;43.652;24.906;2024-02-26T07:55:38;10.23;;;4.97;;
7961;SDS011;4026;43.652;24.906;2024-02-26T07:58:06;14.07;;;6.33;;
7961;SDS011;4026;43.652;24.906;2024-02-26T08:00:33;13.20;;;6.13;;
7961;SDS011;4026;43.652;24.906;2024-02-26T08:02:59;9.83;;;5.47;;
7961;SDS011;4026;43.652;24.906;2024-02-26T08:05:28;10.60;;;5.00;;
7961;SDS011;4026;43.652;24.906;2024-02-26T08:07:55;8.87;;;5.43;;
7961;SDS011;4026;43.652;24.906;2024-02-26T08:10:22;12.43;;;5.83;;
7961;SDS011;4026;43.652;24.906;2024-02-26T08:12:48;10.50;;;5.70;;
7961;SDS011;4026;43.652;24.906;2024-02-26T08:15:15;15.33;;;7.13;;
7961;SDS011;4026;43.652;24.906;2024-02-26T08:17:44;10.00;;;5.30;;
7961;SDS011;4026;43.652;24.906;2024-02-26T08:20:12;14.53;;;5.83;;
7961;SDS011;4026;43.652;24.906;2024-02-26T08:22:40;11.77;;;5.83;;
7961;SDS011;4026;43.652;24.906;2024-02-26T08:25:08;13.53;;;6.20;;
7961;SDS011;4026;43.652;24.906;2024-02-26T08:27:35;11.67;;;5.10;;
7961;SDS011;4026;43.652;24.906;2024-02-26T08:30:02;11.33;;;5.40;;
7961;SDS011;4026;43.652;24.906;2024-02-26T08:32:30;9.30;;;5.30;;
7961;SDS011;4026;43.652;24.906;2024-02-26T08:34:57;8.20;;;4.30;;
7961;SDS011;4026;43.652;24.906;2024-02-26T08:37:23;10.70;;;5.23;;
7961;SDS011;4026;43.652;24.906;2024-02-26T08:39:52;8.07;;;5.00;;
7961;SDS011;4026;43.652;24.906;2024-02-26T08:42:18;9.83;;;4.87;;
7961;SDS011;4026;43.652;24.906;2024-02-26T08:44:46;9.60;;;5.23;;
7961;SDS011;4026;43.652;24.906;2024-02-26T08:47:13;11.43;;;5.53;;
7961;SDS011;4026;43.652;24.906;2024-02-26T08:49:42;12.90;;;5.30;;
7961;SDS011;4026;43.652;24.906;2024-02-26T08:52:09;14.33;;;5.33;;
7961;SDS011;4026;43.652;24.906;2024-02-26T08:54:36;11.43;;;4.90;;
7961;SDS011;4026;43.652;24.906;2024-02-26T08:57:04;9.70;;;4.33;;
7961;SDS011;4026;43.652;24.906;2024-02-26T08:59:31;7.87;;;3.90;;
7961;SDS011;4026;43.652;24.906;2024-02-26T09:01:58;11.33;;;5.07;;
7961;SDS011;4026;43.652;24.906;2024-02-26T09:04:24;9.83;;;5.03;;
7961;SDS011;4026;43.652;24.906;2024-02-26T09:06:52;7.43;;;4.10;;
7961;SDS011;4026;43.652;24.906;2024-02-26T09:09:19;7.93;;;4.27;;
7961;SDS011;4026;43.652;24.906;2024-02-26T09:11:47;7.77;;;3.53;;
7961;SDS011;4026;43.652;24.906;2024-02-26T09:14:18;8.67;;;3.97;;
7961;SDS011;4026;43.652;24.906;2024-02-26T09:16:44;9.57;;;4.83;;
7961;SDS011;4026;43.652;24.906;2024-02-26T09:19:13;9.83;;;4.33;;
7961;SDS011;4026;43.652;24.906;2024-02-26T09:21:42;10.33;;;4.70;;
7961;SDS011;4026;43.652;24.906;2024-02-26T09:24:09;7.97;;;3.97;;
7961;SDS011;4026;43.652;24.906;2024-02-26T09:26:36;8.63;;;4.40;;
7961;SDS011;4026;43.652;24.906;2024-02-26T09:29:03;7.77;;;4.63;;
7961;SDS011;4026;43.652;24.906;2024-02-26T09:31:32;9.90;;;4.43;;
7961;SDS011;4026;43.652;24.906;2024-02-26T09:33:59;9.50;;;4.73;;
7961;SDS011;4026;43.652;24.906;2024-02-26T09:36:26;8.17;;;4.73;;
7961;SDS011;4026;43.652;24.906;2024-02-26T09:38:52;7.53;;;4.87;;
7961;SDS011;4026;43.652;24.906;2024-02-26T09:41:19;7.70;;;3.90;;
7961;SDS011;4026;43.652;24.906;2024-02-26T09:43:47;8.43;;;4.30;;
7961;SDS011;4026;43.652;24.906;2024-02-26T09:46:17;7.07;;;4.43;;
7961;SDS011;4026;43.652;24.906;2024-02-26T09:48:46;8.53;;;4.67;;
7961;SDS011;4026;43.652;24.906;2024-02-26T09:51:14;10.43;;;4.60;;
7961;SDS011;4026;43.652;24.906;2024-02-26T09:53:42;8.83;;;4.47;;
7961;SDS011;4026;43.652;24.906;2024-02-26T09:56:11;8.97;;;4.30;;
7961;SDS011;4026;43.652;24.906;2024-02-26T09:58:38;9.17;;;4.17;;
7961;SDS011;4026;43.652;24.906;2024-02-26T10:01:10;8.83;;;4.50;;
7961;SDS011;4026;43.652;24.906;2024-02-26T10:03:40;9.93;;;5.50;;
7961;SDS011;4026;43.652;24.906;2024-02-26T10:06:11;11.90;;;5.07;;
7961;SDS011;4026;43.652;24.906;2024-02-26T10:08:38;9.47;;;4.73;;
7961;SDS011;4026;43.652;24.906;2024-02-26T10:11:06;9.17;;;4.50;;
7961;SDS011;4026;43.652;24.906;2024-02-26T10:13:34;9.63;;;4.87;;
7961;SDS011;4026;43.652;24.906;2024-02-26T10:16:01;9.33;;;5.13;;
7961;SDS011;4026;43.652;24.906;2024-02-26T10:21:15;10.30;;;5.30;;
7961;SDS011;4026;43.652;24.906;2024-02-26T10:23:43;9.83;;;5.20;;
7961;SDS011;4026;43.652;24.906;2024-02-26T10:26:10;8.80;;;4.70;;
7961;SDS011;4026;43.652;24.906;2024-02-26T10:28:38;9.60;;;5.13;;
7961;SDS011;4026;43.652;24.906;2024-02-26T10:31:06;9.50;;;4.87;;
7961;SDS011;4026;43.652;24.906;2024-02-26T10:33:33;9.13;;;4.77;;
7961;SDS011;4026;43.652;24.906;2024-02-26T10:36:02;10.37;;;5.67;;
7961;SDS011;4026;43.652;24.906;2024-02-26T10:38:30;10.33;;;4.97;;
7961;SDS011;4026;43.652;24.906;2024-02-26T10:40:58;12.27;;;5.70;;
7961;SDS011;4026;43.652;24.906;2024-02-26T10:43:25;14.17;;;6.10;;
7961;SDS011;4026;43.652;24.906;2024-02-26T10:45:52;9.97;;;5.53;;
7961;SDS011;4026;43.652;24.906;2024-02-26T10:48:21;11.37;;;5.47;;
7961;SDS011;4026;43.652;24.906;2024-02-26T10:50:48;12.50;;;5.80;;
7961;SDS011;4026;43.652;24.906;2024-02-26T10:53:16;11.53;;;5.87;;
7961;SDS011;4026;43.652;24.906;2024-02-26T10:55:47;10.57;;;5.63;;
7961;SDS011;4026;43.652;24.906;2024-02-26T10:58:15;11.00;;;5.10;;
7961;SDS011;4026;43.652;24.906;2024-02-26T11:00:43;10.30;;;5.37;;
7961;SDS011;4026;43.652;24.906;2024-02-26T11:03:12;9.40;;;4.90;;
7961;SDS011;4026;43.652;24.906;2024-02-26T11:05:42;8.53;;;4.97;;
7961;SDS011;4026;43.652;24.906;2024-02-26T11:08:10;8.87;;;4.93;;
7961;SDS011;4026;43.652;24.906;2024-02-26T11:10:38;9.77;;;4.67;;
7961;SDS011;4026;43.652;24.906;2024-02-26T11:13:09;12.00;;;5.60;;
7961;SDS011;4026;43.652;24.906;2024-02-26T11:15:38;10.50;;;4.87;;
7961;SDS011;4026;43.652;24.906;2024-02-26T11:18:06;11.40;;;5.60;;
7961;SDS011;4026;43.652;24.906;2024-02-26T11:20:35;9.53;;;4.90;;
7961;SDS011;4026;43.652;24.906;2024-02-26T11:23:06;8.60;;;5.27;;
7961;SDS011;4026;43.652;24.906;2024-02-26T11:25:34;7.80;;;4.53;;
7961;SDS011;4026;43.652;24.906;2024-02-26T11:28:02;7.27;;;4.67;;
7961;SDS011;4026;43.652;24.906;2024-02-26T11:30:33;9.83;;;4.87;;
7961;SDS011;4026;43.652;24.906;2024-02-26T11:33:06;8.63;;;4.87;;
7961;SDS011;4026;43.652;24.906;2024-02-26T11:35:34;9.07;;;4.40;;
7961;SDS011;4026;43.652;24.906;2024-02-26T11:38:03;8.03;;;4.73;;
7961;SDS011;4026;43.652;24.906;2024-02-26T11:40:31;9.80;;;5.00;;
7961;SDS011;4026;43.652;24.906;2024-02-26T11:42:59;13.83;;;5.37;;
7961;SDS011;4026;43.652;24.906;2024-02-26T11:45:47;11.00;;;5.57;;
7961;SDS011;4026;43.652;24.906;2024-02-26T11:48:15;9.90;;;5.47;;
7961;SDS011;4026;43.652;24.906;2024-02-26T11:50:43;9.30;;;5.00;;
7961;SDS011;4026;43.652;24.906;2024-02-26T11:53:19;11.47;;;5.03;;
7961;SDS011;4026;43.652;24.906;2024-02-26T11:55:47;11.73;;;5.20;;
7961;SDS011;4026;43.652;24.906;2024-02-26T11:58:14;10.20;;;5.60;;
7961;SDS011;4026;43.652;24.906;2024-02-26T12:00:42;10.77;;;5.40;;
7961;SDS011;4026;43.652;24.906;2024-02-26T12:03:09;9.90;;;5.53;;
7961;SDS011;4026;43.652;24.906;2024-02-26T12:05:37;12.70;;;6.53;;
7961;SDS011;4026;43.652;24.906;2024-02-26T12:08:05;14.37;;;6.50;;
7961;SDS011;4026;43.652;24.906;2024-02-26T12:10:34;12.90;;;6.27;;
7961;SDS011;4026;43.652;24.906;2024-02-26T12:13:05;14.20;;;6.67;;
7961;SDS011;4026;43.652;24.906;2024-02-26T12:15:35;13.27;;;6.70;;
7961;SDS011;4026;43.652;24.906;2024-02-26T12:18:05;13.60;;;6.10;;
7961;SDS011;4026;43.652;24.906;2024-02-26T12:20:34;12.87;;;6.67;;
7961;SDS011;4026;43.652;24.906;2024-02-26T12:23:02;12.73;;;6.10;;
7961;SDS011;4026;43.652;24.906;2024-02-26T12:25:30;12.13;;;6.27;;
7961;SDS011;4026;43.652;24.906;2024-02-26T12:27:58;9.77;;;6.00;;
7961;SDS011;4026;43.652;24.906;2024-02-26T12:30:25;19.80;;;10.50;;
7961;SDS011;4026;43.652;24.906;2024-02-26T12:32:54;18.40;;;9.00;;
7961;SDS011;4026;43.652;24.906;2024-02-26T12:35:24;16.30;;;9.23;;
7961;SDS011;4026;43.652;24.906;2024-02-26T12:37:52;14.00;;;7.33;;
7961;SDS011;4026;43.652;24.906;2024-02-26T12:40:19;13.93;;;7.50;;
7961;SDS011;4026;43.652;24.906;2024-02-26T12:42:46;10.30;;;5.10;;
7961;SDS011;4026;43.652;24.906;2024-02-26T12:45:14;18.80;;;11.07;;
7961;SDS011;4026;43.652;24.906;2024-02-26T12:47:41;10.70;;;6.13;;
7961;SDS011;4026;43.652;24.906;2024-02-26T12:50:09;13.47;;;6.33;;
7961;SDS011;4026;43.652;24.906;2024-02-26T12:52:38;37.77;;;15.33;;
7961;SDS011;4026;43.652;24.906;2024-02-26T12:55:07;23.23;;;10.97;;
7961;SDS011;4026;43.652;24.906;2024-02-26T12:57:35;8.83;;;4.70;;
7961;SDS011;4026;43.652;24.906;2024-02-26T13:00:03;11.97;;;6.23;;
7961;SDS011;4026;43.652;24.906;2024-02-26T13:02:34;8.97;;;5.20;;
7961;SDS011;4026;43.652;24.906;2024-02-26T13:05:02;11.60;;;5.53;;
7961;SDS011;4026;43.652;24.906;2024-02-26T13:07:30;10.07;;;5.00;;
7961;SDS011;4026;43.652;24.906;2024-02-26T13:09:59;23.30;;;12.33;;
7961;SDS011;4026;43.652;24.906;2024-02-26T13:12:26;13.70;;;6.83;;
7961;SDS011;4026;43.652;24.906;2024-02-26T13:14:59;12.43;;;4.97;;
7961;SDS011;4026;43.652;24.906;2024-02-26T13:17:26;15.67;;;7.03;;
7961;SDS011;4026;43.652;24.906;2024-02-26T13:19:53;10.10;;;5.83;;
7961;SDS011;4026;43.652;24.906;2024-02-26T13:22:20;10.07;;;6.07;;
7961;SDS011;4026;43.652;24.906;2024-02-26T13:24:59;14.43;;;7.17;;
7961;SDS011;4026;43.652;24.906;2024-02-26T13:27:28;27.63;;;14.23;;
7961;SDS011;4026;43.652;24.906;2024-02-26T13:30:02;88.37;;;35.80;;
7961;SDS011;4026;43.652;24.906;2024-02-26T13:32:31;49.97;;;19.17;;
7961;SDS011;4026;43.652;24.906;2024-02-26T13:35:08;56.77;;;16.30;;
7961;SDS011;4026;43.652;24.906;2024-02-26T13:37:36;7.23;;;4.07;;
7961;SDS011;4026;43.652;24.906;2024-02-26T13:40:08;9.07;;;3.60;;
7961;SDS011;4026;43.652;24.906;2024-02-26T13:42:36;7.57;;;3.30;;
7961;SDS011;4026;43.652;24.906;2024-02-26T13:45:04;9.30;;;3.07;;
7961;SDS011;4026;43.652;24.906;2024-02-26T13:47:32;5.30;;;2.83;;
7961;SDS011;4026;43.652;24.906;2024-02-26T13:49:59;9.60;;;3.10;;
7961;SDS011;4026;43.652;24.906;2024-02-26T13:52:26;4.97;;;3.37;;
7961;SDS011;4026;43.652;24.906;2024-02-26T13:54:53;6.30;;;3.20;;
7961;SDS011;4026;43.652;24.906;2024-02-26T13:57:21;5.40;;;3.13;;
7961;SDS011;4026;43.652;24.906;2024-02-26T13:59:48;5.70;;;3.10;;
7961;SDS011;4026;43.652;24.906;2024-02-26T14:02:16;4.83;;;3.00;;
7961;SDS011;4026;43.652;24.906;2024-02-26T14:04:43;5.43;;;3.10;;
7961;SDS011;4026;43.652;24.906;2024-02-26T14:07:10;4.47;;;2.73;;
7961;SDS011;4026;43.652;24.906;2024-02-26T14:09:38;6.43;;;2.90;;
7961;SDS011;4026;43.652;24.906;2024-02-26T14:12:05;4.60;;;2.67;;
7961;SDS011;4026;43.652;24.906;2024-02-26T14:14:33;6.53;;;3.00;;
7961;SDS011;4026;43.652;24.906;2024-02-26T14:17:03;8.70;;;2.97;;
7961;SDS011;4026;43.652;24.906;2024-02-26T14:19:30;6.10;;;3.20;;
7961;SDS011;4026;43.652;24.906;2024-02-26T14:21:57;6.83;;;3.07;;
7961;SDS011;4026;43.652;24.906;2024-02-26T14:24:24;5.60;;;2.90;;
7961;SDS011;4026;43.652;24.906;2024-02-26T14:26:51;4.30;;;2.97;;
7961;SDS011;4026;43.652;24.906;2024-02-26T14:29:18;5.13;;;3.17;;
7961;SDS011;4026;43.652;24.906;2024-02-26T14:31:46;7.13;;;3.10;;
7961;SDS011;4026;43.652;24.906;2024-02-26T14:34:13;8.47;;;3.00;;
7961;SDS011;4026;43.652;24.906;2024-02-26T14:36:42;7.77;;;3.20;;
7961;SDS011;4026;43.652;24.906;2024-02-26T14:39:09;4.70;;;2.43;;
7961;SDS011;4026;43.652;24.906;2024-02-26T14:41:37;5.90;;;3.00;;
7961;SDS011;4026;43.652;24.906;2024-02-26T14:44:04;6.03;;;3.03;;
7961;SDS011;4026;43.652;24.906;2024-02-26T14:46:31;10.03;;;3.40;;
7961;SDS011;4026;43.652;24.906;2024-02-26T14:48:59;6.33;;;3.17;;
7961;SDS011;4026;43.652;24.906;2024-02-26T14:51:26;4.97;;;3.00;;
7961;SDS011;4026;43.652;24.906;2024-02-26T14:53:53;5.43;;;3.03;;
7961;SDS011;4026;43.652;24.906;2024-02-26T14:56:20;5.73;;;3.03;;
7961;SDS011;4026;43.652;24.906;2024-02-26T14:58:47;4.80;;;2.90;;